Wallops Island, Virginia
Current Conditions -  °F | °C
As of 9:54 PM on Monday 20 Oct 2014 (Local Time) from KWAL Reporting Station
Clear Clear  
Wind Chill: 58°   Ceiling: Unl
Heat Index: 58°   Visibility: 10mi
Dew Point: 45°   Wind: 5mph
Humidity: 62%   Direction: 230°SW
Pressure: 30.01"   Gusts: NA
Location:  37.94°N, 75.46°W
Report Text: KWAL 210154Z AUTO 23004KT 10SM CLR 14/07 A3001 RMK AO2 SLP158 T01440072
Loading
Personal Weather Stations






























Interactive Weather Map New forecast layout! Learn more

10-Day Weather Forecast

Advertisements
Track Severe Weather on mobile